sensor_id;sensor_type;location;lat;lon;timestamp;pressure;altitude;pressure_sealevel;temperature;humidity
56070;BME280;41944;52.078;-0.058;2022-08-19T00:01:57;100946.48;;;22.83;74.69
56070;BME280;41944;52.078;-0.058;2022-08-19T00:04:27;100949.20;;;22.97;74.10
56070;BME280;41944;52.078;-0.058;2022-08-19T00:06:55;100952.16;;;23.11;74.09
56070;BME280;41944;52.078;-0.058;2022-08-19T00:09:24;100952.89;;;23.11;73.30
56070;BME280;41944;52.078;-0.058;2022-08-19T00:11:52;100953.55;;;23.06;74.20
56070;BME280;41944;52.078;-0.058;2022-08-19T00:14:20;100956.69;;;22.96;74.65
56070;BME280;41944;52.078;-0.058;2022-08-19T00:16:47;100953.24;;;22.99;74.42
56070;BME280;41944;52.078;-0.058;2022-08-19T00:19:15;100948.15;;;22.83;75.63
56070;BME280;41944;52.078;-0.058;2022-08-19T00:21:43;100951.41;;;22.91;75.92
56070;BME280;41944;52.078;-0.058;2022-08-19T00:24:12;100952.98;;;22.93;75.05
56070;BME280;41944;52.078;-0.058;2022-08-19T00:26:41;100949.72;;;22.71;76.18
56070;BME280;41944;52.078;-0.058;2022-08-19T00:29:11;100951.70;;;22.70;76.08
56070;BME280;41944;52.078;-0.058;2022-08-19T00:31:38;100955.16;;;22.65;76.64
56070;BME280;41944;52.078;-0.058;2022-08-19T00:34:05;100959.57;;;22.57;77.09
56070;BME280;41944;52.078;-0.058;2022-08-19T00:36:32;100956.85;;;22.42;78.04
56070;BME280;41944;52.078;-0.058;2022-08-19T00:39:00;100949.17;;;22.45;77.61
56070;BME280;41944;52.078;-0.058;2022-08-19T00:41:27;100947.82;;;22.56;77.61
56070;BME280;41944;52.078;-0.058;2022-08-19T00:44:01;100946.75;;;22.46;77.92
56070;BME280;41944;52.078;-0.058;2022-08-19T00:46:29;100946.58;;;22.27;78.80
56070;BME280;41944;52.078;-0.058;2022-08-19T00:48:56;100951.02;;;22.21;79.18
56070;BME280;41944;52.078;-0.058;2022-08-19T00:51:24;100951.05;;;22.33;78.43
56070;BME280;41944;52.078;-0.058;2022-08-19T00:53:53;100947.19;;;22.46;78.06
56070;BME280;41944;52.078;-0.058;2022-08-19T00:56:21;100941.77;;;22.43;78.63
56070;BME280;41944;52.078;-0.058;2022-08-19T00:58:49;100940.25;;;22.36;80.04
56070;BME280;41944;52.078;-0.058;2022-08-19T01:01:16;100940.11;;;22.27;80.43
56070;BME280;41944;52.078;-0.058;2022-08-19T01:03:43;100942.14;;;22.28;80.24
56070;BME280;41944;52.078;-0.058;2022-08-19T01:06:10;100940.90;;;22.18;80.49
56070;BME280;41944;52.078;-0.058;2022-08-19T01:08:37;100941.74;;;22.39;80.01
56070;BME280;41944;52.078;-0.058;2022-08-19T01:11:04;100939.31;;;22.26;80.95
56070;BME280;41944;52.078;-0.058;2022-08-19T01:13:33;100938.81;;;22.25;81.07
56070;BME280;41944;52.078;-0.058;2022-08-19T01:16:03;100938.57;;;22.31;81.09
56070;BME280;41944;52.078;-0.058;2022-08-19T01:18:32;100936.93;;;22.22;81.29
56070;BME280;41944;52.078;-0.058;2022-08-19T01:21:09;100926.89;;;22.20;81.81
56070;BME280;41944;52.078;-0.058;2022-08-19T01:23:37;100931.63;;;22.16;82.24
56070;BME280;41944;52.078;-0.058;2022-08-19T01:26:04;100933.04;;;22.08;82.61
56070;BME280;41944;52.078;-0.058;2022-08-19T01:28:31;100939.07;;;21.97;83.11
56070;BME280;41944;52.078;-0.058;2022-08-19T01:30:58;100940.40;;;21.80;84.23
56070;BME280;41944;52.078;-0.058;2022-08-19T01:33:25;100948.22;;;21.65;85.23
56070;BME280;41944;52.078;-0.058;2022-08-19T01:35:52;100949.38;;;21.56;85.62
56070;BME280;41944;52.078;-0.058;2022-08-19T01:38:22;100947.16;;;21.41;86.46
56070;BME280;41944;52.078;-0.058;2022-08-19T01:40:51;100944.62;;;21.45;86.26
56070;BME280;41944;52.078;-0.058;2022-08-19T01:43:18;100947.87;;;21.38;86.68
56070;BME280;41944;52.078;-0.058;2022-08-19T01:45:46;100956.78;;;21.34;87.00
56070;BME280;41944;52.078;-0.058;2022-08-19T01:48:14;100961.98;;;21.33;87.21
56070;BME280;41944;52.078;-0.058;2022-08-19T01:50:41;100967.12;;;21.32;87.30
56070;BME280;41944;52.078;-0.058;2022-08-19T01:53:11;100971.70;;;21.40;87.04
56070;BME280;41944;52.078;-0.058;2022-08-19T01:55:41;100966.15;;;21.41;86.53
56070;BME280;41944;52.078;-0.058;2022-08-19T01:58:13;100966.75;;;21.33;87.08
56070;BME280;41944;52.078;-0.058;2022-08-19T02:00:42;100967.97;;;21.21;87.39
56070;BME280;41944;52.078;-0.058;2022-08-19T02:03:10;100966.78;;;21.26;87.11
56070;BME280;41944;52.078;-0.058;2022-08-19T02:05:38;100964.33;;;21.21;87.20
56070;BME280;41944;52.078;-0.058;2022-08-19T02:08:05;100962.67;;;21.07;87.88
56070;BME280;41944;52.078;-0.058;2022-08-19T02:10:33;100962.43;;;20.96;88.55
56070;BME280;41944;52.078;-0.058;2022-08-19T02:13:00;100958.81;;;20.93;88.90
56070;BME280;41944;52.078;-0.058;2022-08-19T02:15:27;100963.11;;;20.85;89.21
56070;BME280;41944;52.078;-0.058;2022-08-19T02:17:53;100961.09;;;20.83;89.24
56070;BME280;41944;52.078;-0.058;2022-08-19T02:20:20;100958.96;;;20.88;88.92
56070;BME280;41944;52.078;-0.058;2022-08-19T02:22:47;100959.54;;;20.98;88.20
56070;BME280;41944;52.078;-0.058;2022-08-19T02:25:14;100962.18;;;20.81;88.97
56070;BME280;41944;52.078;-0.058;2022-08-19T02:27:41;100966.16;;;20.85;88.94
56070;BME280;41944;52.078;-0.058;2022-08-19T02:30:12;100969.75;;;20.78;89.21
56070;BME280;41944;52.078;-0.058;2022-08-19T02:32:40;100970.85;;;20.74;89.18
56070;BME280;41944;52.078;-0.058;2022-08-19T02:35:08;100968.32;;;20.52;90.01
56070;BME280;41944;52.078;-0.058;2022-08-19T02:37:36;100967.41;;;20.44;90.50
56070;BME280;41944;52.078;-0.058;2022-08-19T02:40:03;100963.52;;;20.47;90.24
56070;BME280;41944;52.078;-0.058;2022-08-19T02:42:30;100963.70;;;20.49;90.25
56070;BME280;41944;52.078;-0.058;2022-08-19T02:44:57;100967.35;;;20.49;90.17
56070;BME280;41944;52.078;-0.058;2022-08-19T02:47:24;100967.05;;;20.54;90.15
56070;BME280;41944;52.078;-0.058;2022-08-19T02:49:51;100965.81;;;20.50;90.36
56070;BME280;41944;52.078;-0.058;2022-08-19T02:52:18;100969.29;;;20.49;90.69
56070;BME280;41944;52.078;-0.058;2022-08-19T02:54:45;100964.36;;;20.46;90.90
56070;BME280;41944;52.078;-0.058;2022-08-19T02:57:11;100962.88;;;20.51;90.98
56070;BME280;41944;52.078;-0.058;2022-08-19T02:59:38;100964.04;;;20.50;91.23
56070;BME280;41944;52.078;-0.058;2022-08-19T03:02:05;100969.91;;;20.52;91.49
56070;BME280;41944;52.078;-0.058;2022-08-19T03:04:32;100970.24;;;20.48;91.93
56070;BME280;41944;52.078;-0.058;2022-08-19T03:06:59;100966.12;;;20.52;91.95
56070;BME280;41944;52.078;-0.058;2022-08-19T03:09:26;100965.91;;;20.61;91.80
56070;BME280;41944;52.078;-0.058;2022-08-19T03:11:52;100964.16;;;20.77;90.97
56070;BME280;41944;52.078;-0.058;2022-08-19T03:14:19;100964.47;;;20.86;90.75
56070;BME280;41944;52.078;-0.058;2022-08-19T03:16:48;100965.28;;;20.75;91.46
56070;BME280;41944;52.078;-0.058;2022-08-19T03:19:17;100966.40;;;20.81;91.26
56070;BME280;41944;52.078;-0.058;2022-08-19T03:21:45;100968.96;;;20.79;91.42
56070;BME280;41944;52.078;-0.058;2022-08-19T03:24:14;100964.77;;;20.87;90.92
56070;BME280;41944;52.078;-0.058;2022-08-19T03:26:43;100968.91;;;20.86;91.09
56070;BME280;41944;52.078;-0.058;2022-08-19T03:29:11;100969.47;;;20.89;90.88
56070;BME280;41944;52.078;-0.058;2022-08-19T03:31:40;100968.27;;;20.94;90.63
56070;BME280;41944;52.078;-0.058;2022-08-19T03:34:07;100966.67;;;21.00;90.33
56070;BME280;41944;52.078;-0.058;2022-08-19T03:36:34;100967.21;;;21.14;89.59
56070;BME280;41944;52.078;-0.058;2022-08-19T03:39:02;100969.63;;;21.04;90.07
56070;BME280;41944;52.078;-0.058;2022-08-19T03:41:31;100970.59;;;21.00;90.59
56070;BME280;41944;52.078;-0.058;2022-08-19T03:43:59;100973.30;;;21.12;89.84
56070;BME280;41944;52.078;-0.058;2022-08-19T03:46:28;100974.10;;;21.30;88.67
56070;BME280;41944;52.078;-0.058;2022-08-19T03:48:58;100978.83;;;21.33;88.53
56070;BME280;41944;52.078;-0.058;2022-08-19T03:51:28;100983.82;;;21.31;89.29
56070;BME280;41944;52.078;-0.058;2022-08-19T03:53:56;100985.30;;;21.35;90.99
56070;BME280;41944;52.078;-0.058;2022-08-19T03:56:23;100985.30;;;21.39;91.90
56070;BME280;41944;52.078;-0.058;2022-08-19T03:58:50;100980.20;;;21.19;94.77
56070;BME280;41944;52.078;-0.058;2022-08-19T04:01:20;100977.28;;;21.18;95.40
56070;BME280;41944;52.078;-0.058;2022-08-19T04:03:47;100979.63;;;21.03;96.87
56070;BME280;41944;52.078;-0.058;2022-08-19T04:06:18;100978.96;;;21.03;97.36
56070;BME280;41944;52.078;-0.058;2022-08-19T04:08:47;100978.60;;;21.00;98.42
56070;BME280;41944;52.078;-0.058;2022-08-19T04:11:16;100977.00;;;20.93;98.52
56070;BME280;41944;52.078;-0.058;2022-08-19T04:13:43;100976.89;;;20.87;99.49
56070;BME280;41944;52.078;-0.058;2022-08-19T04:16:11;100980.07;;;20.94;99.47
56070;BME280;41944;52.078;-0.058;2022-08-19T04:18:39;100982.63;;;20.91;99.61
56070;BME280;41944;52.078;-0.058;2022-08-19T04:21:07;100980.69;;;20.87;100.00
56070;BME280;41944;52.078;-0.058;2022-08-19T04:23:35;100980.20;;;20.83;100.00
56070;BME280;41944;52.078;-0.058;2022-08-19T04:26:02;100977.67;;;20.76;100.00
56070;BME280;41944;52.078;-0.058;2022-08-19T04:28:29;100978.83;;;20.75;100.00
56070;BME280;41944;52.078;-0.058;2022-08-19T04:30:56;100978.34;;;20.68;100.00
56070;BME280;41944;52.078;-0.058;2022-08-19T04:33:25;100977.32;;;20.80;100.00
56070;BME280;41944;52.078;-0.058;2022-08-19T04:35:52;100979.53;;;20.78;100.00
56070;BME280;41944;52.078;-0.058;2022-08-19T04:38:21;100981.41;;;20.89;99.72
56070;BME280;41944;52.078;-0.058;2022-08-19T04:40:51;100981.50;;;20.98;98.81
56070;BME280;41944;52.078;-0.058;2022-08-19T04:43:18;100979.28;;;21.03;98.35
56070;BME280;41944;52.078;-0.058;2022-08-19T04:45:45;100983.05;;;20.97;98.82
56070;BME280;41944;52.078;-0.058;2022-08-19T04:48:13;100978.79;;;21.04;98.00
56070;BME280;41944;52.078;-0.058;2022-08-19T04:50:41;100980.51;;;21.20;96.35
56070;BME280;41944;52.078;-0.058;2022-08-19T04:53:09;100983.43;;;21.30;95.09
56070;BME280;41944;52.078;-0.058;2022-08-19T04:55:40;100989.29;;;21.13;96.69
56070;BME280;41944;52.078;-0.058;2022-08-19T04:58:07;100991.03;;;21.09;97.77
56070;BME280;41944;52.078;-0.058;2022-08-19T05:00:34;100991.09;;;21.07;98.17
56070;BME280;41944;52.078;-0.058;2022-08-19T05:03:04;100993.73;;;21.12;97.51
56070;BME280;41944;52.078;-0.058;2022-08-19T05:05:31;100996.25;;;21.13;97.28
56070;BME280;41944;52.078;-0.058;2022-08-19T05:07:58;100997.16;;;21.24;96.46
56070;BME280;41944;52.078;-0.058;2022-08-19T05:10:25;100992.18;;;21.27;96.22
56070;BME280;41944;52.078;-0.058;2022-08-19T05:12:51;100991.25;;;21.31;95.09
56070;BME280;41944;52.078;-0.058;2022-08-19T05:15:18;100992.55;;;21.39;94.12
56070;BME280;41944;52.078;-0.058;2022-08-19T05:17:46;100994.40;;;21.47;93.57
56070;BME280;41944;52.078;-0.058;2022-08-19T05:20:13;100992.14;;;21.41;94.15
56070;BME280;41944;52.078;-0.058;2022-08-19T05:22:40;100995.84;;;21.39;94.11
56070;BME280;41944;52.078;-0.058;2022-08-19T05:25:11;101001.04;;;21.29;95.08
56070;BME280;41944;52.078;-0.058;2022-08-19T05:27:38;101002.30;;;21.32;95.03
56070;BME280;41944;52.078;-0.058;2022-08-19T05:30:07;101005.20;;;21.35;94.32
56070;BME280;41944;52.078;-0.058;2022-08-19T05:32:35;101009.18;;;21.40;93.90
56070;BME280;41944;52.078;-0.058;2022-08-19T05:35:02;101011.93;;;21.51;91.85
56070;BME280;41944;52.078;-0.058;2022-08-19T05:37:29;101026.33;;;21.53;91.37
56070;BME280;41944;52.078;-0.058;2022-08-19T05:39:56;101028.06;;;21.57;89.63
56070;BME280;41944;52.078;-0.058;2022-08-19T05:42:23;101027.55;;;21.37;90.78
56070;BME280;41944;52.078;-0.058;2022-08-19T05:44:50;101027.24;;;21.19;91.48
56070;BME280;41944;52.078;-0.058;2022-08-19T05:47:18;101027.38;;;21.18;90.31
56070;BME280;41944;52.078;-0.058;2022-08-19T05:49:46;101035.49;;;21.28;89.81
56070;BME280;41944;52.078;-0.058;2022-08-19T05:52:15;101040.91;;;21.02;92.84
56070;BME280;41944;52.078;-0.058;2022-08-19T05:54:43;101039.21;;;20.96;92.87
56070;BME280;41944;52.078;-0.058;2022-08-19T05:57:10;101042.36;;;20.85;93.79
56070;BME280;41944;52.078;-0.058;2022-08-19T05:59:37;101044.55;;;21.00;92.14
56070;BME280;41944;52.078;-0.058;2022-08-19T06:02:05;101049.24;;;20.85;92.66
56070;BME280;41944;52.078;-0.058;2022-08-19T06:04:33;101053.95;;;20.96;91.83
56070;BME280;41944;52.078;-0.058;2022-08-19T06:07:01;101055.21;;;20.88;92.65
56070;BME280;41944;52.078;-0.058;2022-08-19T06:09:28;101051.10;;;20.75;93.30
56070;BME280;41944;52.078;-0.058;2022-08-19T06:11:57;101048.27;;;20.65;94.34
56070;BME280;41944;52.078;-0.058;2022-08-19T06:14:28;101048.96;;;20.86;93.07
56070;BME280;41944;52.078;-0.058;2022-08-19T06:16:57;101043.12;;;20.79;94.37
56070;BME280;41944;52.078;-0.058;2022-08-19T06:19:24;101049.38;;;20.86;93.33
56070;BME280;41944;52.078;-0.058;2022-08-19T06:21:52;101050.84;;;20.97;92.05
56070;BME280;41944;52.078;-0.058;2022-08-19T06:24:22;101055.43;;;21.09;91.83
56070;BME280;41944;52.078;-0.058;2022-08-19T06:26:51;101053.72;;;21.01;90.55
56070;BME280;41944;52.078;-0.058;2022-08-19T06:29:21;101052.85;;;20.80;91.22
56070;BME280;41944;52.078;-0.058;2022-08-19T06:31:50;101050.91;;;20.91;92.07
56070;BME280;41944;52.078;-0.058;2022-08-19T06:34:18;101054.00;;;21.06;90.30
56070;BME280;41944;52.078;-0.058;2022-08-19T06:36:48;101050.40;;;21.25;89.27
56070;BME280;41944;52.078;-0.058;2022-08-19T06:39:18;101054.75;;;21.48;86.39
56070;BME280;41944;52.078;-0.058;2022-08-19T06:41:47;101051.29;;;21.29;88.63
56070;BME280;41944;52.078;-0.058;2022-08-19T06:44:16;101050.99;;;21.41;87.01
56070;BME280;41944;52.078;-0.058;2022-08-19T06:46:43;101053.51;;;21.45;85.98
56070;BME280;41944;52.078;-0.058;2022-08-19T06:49:10;101055.93;;;21.48;87.33
56070;BME280;41944;52.078;-0.058;2022-08-19T06:51:37;101059.31;;;21.52;86.57
56070;BME280;41944;52.078;-0.058;2022-08-19T06:54:05;101060.26;;;21.59;85.78
56070;BME280;41944;52.078;-0.058;2022-08-19T06:56:32;101057.23;;;21.43;85.46
56070;BME280;41944;52.078;-0.058;2022-08-19T06:59:00;101059.61;;;21.48;87.05
56070;BME280;41944;52.078;-0.058;2022-08-19T07:01:27;101069.64;;;21.65;85.42
56070;BME280;41944;52.078;-0.058;2022-08-19T07:03:55;101072.33;;;21.70;86.28
56070;BME280;41944;52.078;-0.058;2022-08-19T07:06:23;101075.54;;;21.87;84.38
56070;BME280;41944;52.078;-0.058;2022-08-19T07:08:49;101076.75;;;21.88;82.95
56070;BME280;41944;52.078;-0.058;2022-08-19T07:11:17;101079.02;;;21.86;83.35
56070;BME280;41944;52.078;-0.058;2022-08-19T07:13:46;101079.37;;;21.93;85.03
56070;BME280;41944;52.078;-0.058;2022-08-19T07:16:16;101081.84;;;21.95;84.11
56070;BME280;41944;52.078;-0.058;2022-08-19T07:18:44;101080.54;;;22.04;83.32
56070;BME280;41944;52.078;-0.058;2022-08-19T07:21:12;101081.55;;;22.14;84.55
56070;BME280;41944;52.078;-0.058;2022-08-19T07:23:40;101079.92;;;22.25;83.95
56070;BME280;41944;52.078;-0.058;2022-08-19T07:26:10;101079.29;;;22.41;83.72
56070;BME280;41944;52.078;-0.058;2022-08-19T07:28:37;101088.01;;;22.33;82.65
56070;BME280;41944;52.078;-0.058;2022-08-19T07:31:04;101084.58;;;22.45;83.47
56070;BME280;41944;52.078;-0.058;2022-08-19T07:33:32;101086.62;;;22.31;84.29
56070;BME280;41944;52.078;-0.058;2022-08-19T07:35:59;101084.60;;;22.38;84.05
56070;BME280;41944;52.078;-0.058;2022-08-19T07:38:26;101089.33;;;22.76;82.11
56070;BME280;41944;52.078;-0.058;2022-08-19T07:40:54;101088.32;;;22.77;81.04
56070;BME280;41944;52.078;-0.058;2022-08-19T07:43:21;101085.28;;;22.81;78.03
56070;BME280;41944;52.078;-0.058;2022-08-19T07:45:48;101090.17;;;22.96;77.27
56070;BME280;41944;52.078;-0.058;2022-08-19T07:48:15;101089.04;;;23.12;76.48
56070;BME280;41944;52.078;-0.058;2022-08-19T07:50:42;101092.89;;;23.24;75.38
56070;BME280;41944;52.078;-0.058;2022-08-19T07:53:09;101096.25;;;23.47;74.24
56070;BME280;41944;52.078;-0.058;2022-08-19T07:55:36;101094.53;;;23.55;72.66
56070;BME280;41944;52.078;-0.058;2022-08-19T07:58:03;101098.81;;;23.61;71.60
56070;BME280;41944;52.078;-0.058;2022-08-19T08:00:30;101099.77;;;23.63;70.97
56070;BME280;41944;52.078;-0.058;2022-08-19T08:02:56;101096.82;;;23.65;71.04
56070;BME280;41944;52.078;-0.058;2022-08-19T08:05:23;101099.12;;;23.56;70.36
56070;BME280;41944;52.078;-0.058;2022-08-19T08:07:51;101101.66;;;23.67;70.58
56070;BME280;41944;52.078;-0.058;2022-08-19T08:10:18;101099.53;;;23.71;69.30
56070;BME280;41944;52.078;-0.058;2022-08-19T08:12:46;101102.97;;;23.73;68.78
56070;BME280;41944;52.078;-0.058;2022-08-19T08:15:15;101110.84;;;23.64;69.17
56070;BME280;41944;52.078;-0.058;2022-08-19T08:17:43;101113.00;;;23.45;69.17
56070;BME280;41944;52.078;-0.058;2022-08-19T08:20:11;101112.27;;;23.40;67.82
56070;BME280;41944;52.078;-0.058;2022-08-19T08:22:43;101109.42;;;23.43;68.12
56070;BME280;41944;52.078;-0.058;2022-08-19T08:25:13;101111.44;;;23.50;65.79
56070;BME280;41944;52.078;-0.058;2022-08-19T08:27:43;101113.46;;;23.65;63.51
56070;BME280;41944;52.078;-0.058;2022-08-19T08:30:13;101112.50;;;23.51;63.43
56070;BME280;41944;52.078;-0.058;2022-08-19T08:32:41;101111.71;;;23.45;63.61
56070;BME280;41944;52.078;-0.058;2022-08-19T08:35:11;101114.92;;;23.47;63.84
56070;BME280;41944;52.078;-0.058;2022-08-19T08:37:39;101115.77;;;23.40;64.65
56070;BME280;41944;52.078;-0.058;2022-08-19T08:40:19;101107.78;;;23.57;63.71
56070;BME280;41944;52.078;-0.058;2022-08-19T08:42:53;101108.20;;;23.66;63.97
56070;BME280;41944;52.078;-0.058;2022-08-19T08:45:23;101102.28;;;23.93;62.83
56070;BME280;41944;52.078;-0.058;2022-08-19T08:47:52;101100.63;;;23.84;63.56
56070;BME280;41944;52.078;-0.058;2022-08-19T08:50:29;101100.20;;;23.82;63.36
56070;BME280;41944;52.078;-0.058;2022-08-19T08:52:58;101102.28;;;23.86;62.32
56070;BME280;41944;52.078;-0.058;2022-08-19T08:55:27;101103.82;;;24.02;62.85
56070;BME280;41944;52.078;-0.058;2022-08-19T08:57:59;101109.48;;;24.26;61.86
56070;BME280;41944;52.078;-0.058;2022-08-19T09:00:30;101109.50;;;24.08;62.15
56070;BME280;41944;52.078;-0.058;2022-08-19T09:02:59;101111.98;;;24.16;60.69
56070;BME280;41944;52.078;-0.058;2022-08-19T09:05:34;101106.13;;;24.26;58.59
56070;BME280;41944;52.078;-0.058;2022-08-19T09:08:08;101105.17;;;24.39;58.24
56070;BME280;41944;52.078;-0.058;2022-08-19T09:10:44;101105.46;;;24.41;58.70
56070;BME280;41944;52.078;-0.058;2022-08-19T09:13:18;101105.29;;;24.54;57.39
56070;BME280;41944;52.078;-0.058;2022-08-19T09:15:54;101105.05;;;24.57;57.64
56070;BME280;41944;52.078;-0.058;2022-08-19T09:18:23;101108.35;;;24.74;55.22
56070;BME280;41944;52.078;-0.058;2022-08-19T09:20:51;101109.02;;;24.78;56.17
56070;BME280;41944;52.078;-0.058;2022-08-19T09:23:18;101111.80;;;24.85;55.24
56070;BME280;41944;52.078;-0.058;2022-08-19T09:25:44;101109.44;;;24.83;55.07
56070;BME280;41944;52.078;-0.058;2022-08-19T09:28:11;101102.32;;;24.85;54.89
56070;BME280;41944;52.078;-0.058;2022-08-19T09:30:40;101101.54;;;24.82;55.62
56070;BME280;41944;52.078;-0.058;2022-08-19T09:33:08;101101.49;;;25.07;53.60
56070;BME280;41944;52.078;-0.058;2022-08-19T09:35:36;101099.78;;;25.23;52.95
56070;BME280;41944;52.078;-0.058;2022-08-19T09:38:03;101103.95;;;25.25;53.49
56070;BME280;41944;52.078;-0.058;2022-08-19T09:40:30;101104.09;;;25.35;54.74
56070;BME280;41944;52.078;-0.058;2022-08-19T09:42:58;101101.77;;;25.16;53.07
56070;BME280;41944;52.078;-0.058;2022-08-19T09:45:25;101104.27;;;25.12;54.12
56070;BME280;41944;52.078;-0.058;2022-08-19T09:47:53;101106.49;;;25.30;53.86
56070;BME280;41944;52.078;-0.058;2022-08-19T09:50:21;101105.14;;;25.33;52.50
56070;BME280;41944;52.078;-0.058;2022-08-19T09:52:48;101105.82;;;25.46;52.82
56070;BME280;41944;52.078;-0.058;2022-08-19T09:55:15;101097.81;;;25.50;52.54
56070;BME280;41944;52.078;-0.058;2022-08-19T09:57:42;101099.01;;;25.45;53.94
56070;BME280;41944;52.078;-0.058;2022-08-19T10:00:10;101102.08;;;25.45;53.73
56070;BME280;41944;52.078;-0.058;2022-08-19T10:02:37;101110.23;;;25.49;53.37
56070;BME280;41944;52.078;-0.058;2022-08-19T10:05:04;101114.17;;;25.62;53.62
56070;BME280;41944;52.078;-0.058;2022-08-19T10:07:31;101115.08;;;25.65;53.51
56070;BME280;41944;52.078;-0.058;2022-08-19T10:09:58;101121.29;;;25.40;54.21
56070;BME280;41944;52.078;-0.058;2022-08-19T10:12:25;101118.49;;;25.28;54.56
56070;BME280;41944;52.078;-0.058;2022-08-19T10:14:52;101125.34;;;25.10;54.28
56070;BME280;41944;52.078;-0.058;2022-08-19T10:17:19;101124.32;;;24.99;55.68
56070;BME280;41944;52.078;-0.058;2022-08-19T10:19:46;101130.56;;;25.05;54.56
56070;BME280;41944;52.078;-0.058;2022-08-19T10:22:12;101125.79;;;25.19;52.98
56070;BME280;41944;52.078;-0.058;2022-08-19T10:24:40;101126.87;;;25.31;51.66
56070;BME280;41944;52.078;-0.058;2022-08-19T10:27:07;101132.95;;;25.35;50.41
56070;BME280;41944;52.078;-0.058;2022-08-19T10:29:34;101128.69;;;25.34;52.01
56070;BME280;41944;52.078;-0.058;2022-08-19T10:32:03;101134.00;;;25.37;51.08
56070;BME280;41944;52.078;-0.058;2022-08-19T10:34:31;101142.60;;;25.45;50.40
56070;BME280;41944;52.078;-0.058;2022-08-19T10:36:58;101136.67;;;25.33;50.67
56070;BME280;41944;52.078;-0.058;2022-08-19T10:39:26;101138.27;;;25.34;49.05
56070;BME280;41944;52.078;-0.058;2022-08-19T10:41:53;101137.53;;;25.45;48.66
56070;BME280;41944;52.078;-0.058;2022-08-19T10:44:20;101144.76;;;25.67;47.43
56070;BME280;41944;52.078;-0.058;2022-08-19T10:46:47;101141.35;;;25.75;46.87
56070;BME280;41944;52.078;-0.058;2022-08-19T10:49:14;101146.77;;;25.68;46.80
56070;BME280;41944;52.078;-0.058;2022-08-19T10:51:41;101145.39;;;25.73;46.63
56070;BME280;41944;52.078;-0.058;2022-08-19T10:54:09;101142.34;;;25.61;45.92
56070;BME280;41944;52.078;-0.058;2022-08-19T10:56:36;101142.47;;;25.56;46.19
56070;BME280;41944;52.078;-0.058;2022-08-19T10:59:04;101140.05;;;25.52;46.49
56070;BME280;41944;52.078;-0.058;2022-08-19T11:01:32;101135.20;;;25.36;45.53
56070;BME280;41944;52.078;-0.058;2022-08-19T11:04:00;101141.62;;;25.38;45.69
56070;BME280;41944;52.078;-0.058;2022-08-19T11:06:28;101141.90;;;25.51;45.48
56070;BME280;41944;52.078;-0.058;2022-08-19T11:08:55;101145.13;;;25.37;45.66
56070;BME280;41944;52.078;-0.058;2022-08-19T11:11:23;101146.37;;;25.48;44.90
56070;BME280;41944;52.078;-0.058;2022-08-19T11:13:50;101145.92;;;25.38;44.57
56070;BME280;41944;52.078;-0.058;2022-08-19T11:16:19;101140.78;;;25.39;44.41
56070;BME280;41944;52.078;-0.058;2022-08-19T11:18:49;101147.75;;;25.57;44.99
56070;BME280;41944;52.078;-0.058;2022-08-19T11:21:19;101148.63;;;25.48;43.86
56070;BME280;41944;52.078;-0.058;2022-08-19T11:23:48;101143.61;;;25.43;43.57
56070;BME280;41944;52.078;-0.058;2022-08-19T11:26:16;101149.98;;;25.49;44.38
56070;BME280;41944;52.078;-0.058;2022-08-19T11:28:44;101145.16;;;25.45;44.84
56070;BME280;41944;52.078;-0.058;2022-08-19T11:31:12;101143.52;;;25.51;46.21
56070;BME280;41944;52.078;-0.058;2022-08-19T11:33:40;101151.07;;;25.48;43.08
56070;BME280;41944;52.078;-0.058;2022-08-19T11:36:08;101147.98;;;25.37;43.39
56070;BME280;41944;52.078;-0.058;2022-08-19T11:38:36;101147.56;;;25.43;43.61
56070;BME280;41944;52.078;-0.058;2022-08-19T11:41:06;101142.28;;;25.38;42.93
56070;BME280;41944;52.078;-0.058;2022-08-19T11:43:34;101148.07;;;25.44;43.99
56070;BME280;41944;52.078;-0.058;2022-08-19T11:46:04;101153.02;;;25.71;42.36
56070;BME280;41944;52.078;-0.058;2022-08-19T11:48:31;101148.62;;;25.80;42.65
56070;BME280;41944;52.078;-0.058;2022-08-19T11:50:58;101149.60;;;25.98;43.65
56070;BME280;41944;52.078;-0.058;2022-08-19T11:53:25;101155.99;;;25.98;40.90
56070;BME280;41944;52.078;-0.058;2022-08-19T11:55:53;101159.45;;;26.12;41.02
56070;BME280;41944;52.078;-0.058;2022-08-19T11:58:21;101164.11;;;26.22;40.87
56070;BME280;41944;52.078;-0.058;2022-08-19T12:00:48;101162.10;;;26.17;40.37
56070;BME280;41944;52.078;-0.058;2022-08-19T12:03:15;101151.35;;;26.26;39.30
56070;BME280;41944;52.078;-0.058;2022-08-19T12:05:42;101158.68;;;26.32;39.72
56070;BME280;41944;52.078;-0.058;2022-08-19T12:08:09;101161.22;;;26.44;39.47
56070;BME280;41944;52.078;-0.058;2022-08-19T12:10:36;101159.87;;;26.62;37.76
56070;BME280;41944;52.078;-0.058;2022-08-19T12:13:03;101161.64;;;26.68;36.58
56070;BME280;41944;52.078;-0.058;2022-08-19T12:15:30;101165.97;;;26.76;37.50
56070;BME280;41944;52.078;-0.058;2022-08-19T12:18:02;101165.37;;;26.73;36.88
56070;BME280;41944;52.078;-0.058;2022-08-19T12:20:29;101177.59;;;26.78;35.73
56070;BME280;41944;52.078;-0.058;2022-08-19T12:22:56;101168.51;;;26.69;35.09
56070;BME280;41944;52.078;-0.058;2022-08-19T12:25:23;101172.65;;;26.63;34.88
56070;BME280;41944;52.078;-0.058;2022-08-19T12:27:49;101175.02;;;26.61;35.73
56070;BME280;41944;52.078;-0.058;2022-08-19T12:30:16;101171.97;;;26.57;35.77
56070;BME280;41944;52.078;-0.058;2022-08-19T12:32:43;101180.69;;;26.56;35.26
56070;BME280;41944;52.078;-0.058;2022-08-19T12:35:10;101166.72;;;26.43;34.83
56070;BME280;41944;52.078;-0.058;2022-08-19T12:37:38;101165.77;;;26.66;35.89
56070;BME280;41944;52.078;-0.058;2022-08-19T12:40:06;101169.20;;;26.66;34.55
56070;BME280;41944;52.078;-0.058;2022-08-19T12:42:34;101160.45;;;26.48;36.65
56070;BME280;41944;52.078;-0.058;2022-08-19T12:45:01;101163.33;;;26.42;36.32